Time;durP1;ratioP1;P1;durP2;ratioP2;P2;SDS_P1;SDS_P2;PMS_P1;PMS_P2;Temp;Humidity;BMP_temperature;BMP_pressure;BME280_temperature;BME280_humidity;BME280_pressure;Samples;Min_cycle;Max_cycle;Signal;HPM_P1;HPM_P2
2021/04/10 00:00:25;;;;;;;7.03;0.93;;;11.40;99.90;;;;;;4953438;29;20062;-70
2021/04/10 00:02:52;;;;;;;2.58;0.77;;;11.40;99.90;;;;;;4948118;28;20055;-70
2021/04/10 00:05:23;;;;;;;4.35;0.98;;;11.50;99.90;;;;;;4958589;28;20047;-70
2021/04/10 00:07:50;;;;;;;4.03;0.80;;;11.40;99.90;;;;;;4952973;29;20527;-70
2021/04/10 00:10:17;;;;;;;3.50;1.05;;;11.50;99.90;;;;;;4953014;29;20051;-70
2021/04/10 00:12:43;;;;;;;5.15;0.88;;;11.50;99.90;;;;;;4951903;29;20050;-70
2021/04/10 00:15:14;;;;;;;4.20;1.10;;;11.50;99.90;;;;;;4953236;28;20048;-71
2021/04/10 00:17:42;;;;;;;4.78;0.95;;;11.50;99.90;;;;;;4953093;29;20110;-70
2021/04/10 00:20:11;;;;;;;11.40;1.10;;;11.50;99.90;;;;;;4952827;28;20075;-70
2021/04/10 00:22:38;;;;;;;10.65;1.15;;;11.50;99.90;;;;;;4950708;29;20106;-70
2021/04/10 00:25:06;;;;;;;4.82;0.80;;;11.50;99.90;;;;;;4955902;28;20463;-70
2021/04/10 00:27:33;;;;;;;3.65;1.08;;;11.40;99.90;;;;;;4964815;28;20063;-70
2021/04/10 00:29:59;;;;;;;5.70;0.80;;;11.40;99.90;;;;;;4935443;29;20102;-70
2021/04/10 00:32:26;;;;;;;5.88;1.40;;;11.40;99.90;;;;;;4953520;28;20141;-70
2021/04/10 00:34:52;;;;;;;5.32;1.30;;;11.40;99.90;;;;;;4971873;28;20077;-70
2021/04/10 00:37:19;;;;;;;4.80;1.00;;;11.40;99.90;;;;;;4958773;28;20110;-71
2021/04/10 00:39:45;;;;;;;3.15;1.08;;;11.40;99.90;;;;;;4935050;29;20047;-70
2021/04/10 00:42:11;;;;;;;3.53;0.80;;;11.40;99.90;;;;;;4932801;29;20047;-71
2021/04/10 00:44:38;;;;;;;6.18;0.82;;;11.30;99.90;;;;;;4953678;28;20083;-70
2021/04/10 00:47:04;;;;;;;6.20;1.30;;;11.40;99.90;;;;;;4931133;29;20079;-70
2021/04/10 00:49:31;;;;;;;4.82;0.70;;;11.40;99.90;;;;;;4952141;29;20069;-70
2021/04/10 00:51:57;;;;;;;4.05;0.85;;;11.40;99.90;;;;;;4951800;29;20114;-70
2021/04/10 00:54:24;;;;;;;3.85;0.90;;;11.40;99.90;;;;;;4952964;28;20097;-70
2021/04/10 00:56:50;;;;;;;3.70;0.90;;;11.40;99.90;;;;;;4950436;29;20090;-70
2021/04/10 00:59:16;;;;;;;3.28;0.80;;;11.50;99.90;;;;;;4950560;28;20052;-71
2021/04/10 01:01:43;;;;;;;8.48;1.00;;;11.40;99.90;;;;;;4951779;29;20051;-70
2021/04/10 01:04:09;;;;;;;5.82;1.15;;;11.50;99.90;;;;;;4964731;28;20047;-70
2021/04/10 01:06:36;;;;;;;2.97;0.98;;;11.50;99.90;;;;;;4962300;28;20058;-70
2021/04/10 01:09:02;;;;;;;7.82;1.10;;;11.50;99.90;;;;;;4949087;29;20094;-70
2021/04/10 01:11:44;;;;;;;3.78;0.80;;;11.50;99.90;;;;;;4951235;28;20043;-70
2021/04/10 01:14:58;;;;;;;8.10;1.17;;;11.50;99.90;;;;;;4949675;29;20404;-70
2021/04/10 01:17:38;;;;;;;5.75;1.20;;;11.50;99.90;;;;;;4951130;29;20090;-70
2021/04/10 01:20:25;;;;;;;7.10;1.10;;;11.40;99.90;;;;;;4939107;29;20071;-71
2021/04/10 01:23:10;;;;;;;5.18;1.00;;;11.50;99.90;;;;;;4949512;29;20047;-70
2021/04/10 01:25:37;;;;;;;8.13;1.27;;;11.50;99.90;;;;;;4951145;28;20409;-70
2021/04/10 01:28:16;;;;;;;6.80;1.10;;;11.50;99.90;;;;;;4933026;29;20043;-70
2021/04/10 01:30:44;;;;;;;5.60;1.25;;;11.50;99.90;;;;;;4927182;29;20445;-70
2021/04/10 01:33:14;;;;;;;4.88;1.00;;;11.50;99.90;;;;;;4933008;29;20564;-70
2021/04/10 01:35:47;;;;;;;7.45;1.50;;;11.50;99.90;;;;;;4942937;28;20107;-70
2021/04/10 01:38:17;;;;;;;3.60;1.02;;;11.50;99.90;;;;;;4950146;29;20441;-70
2021/04/10 01:40:49;;;;;;;5.43;1.17;;;11.50;99.90;;;;;;4918640;29;20081;-71
2021/04/10 01:43:17;;;;;;;3.83;0.93;;;11.50;99.90;;;;;;4932257;29;20082;-70
2021/04/10 01:45:43;;;;;;;4.90;1.70;;;11.40;99.90;;;;;;4951681;28;20047;-70
2021/04/10 01:48:12;;;;;;;4.32;0.88;;;11.30;99.90;;;;;;4953670;29;20051;-71
2021/04/10 01:50:39;;;;;;;7.78;1.15;;;11.30;99.90;;;;;;4954909;29;20051;-71
2021/04/10 01:53:07;;;;;;;6.05;0.98;;;11.30;99.90;;;;;;4936586;29;20058;-70
2021/04/10 01:55:35;;;;;;;5.20;1.25;;;11.30;99.90;;;;;;4954899;29;20492;-70
2021/04/10 01:58:03;;;;;;;6.68;1.25;;;11.30;99.90;;;;;;4952217;29;20047;-70
2021/04/10 02:00:32;;;;;;;4.90;1.20;;;11.30;99.90;;;;;;4954086;29;20488;-70
2021/04/10 02:03:00;;;;;;;8.65;1.10;;;11.10;99.90;;;;;;4953794;29;20460;-70
2021/04/10 02:05:27;;;;;;;7.40;1.55;;;11.10;99.90;;;;;;4954327;28;20055;-70
2021/04/10 02:07:55;;;;;;;11.18;1.20;;;11.00;99.90;;;;;;4954196;29;20094;-70
2021/04/10 02:10:25;;;;;;;4.00;0.90;;;11.00;99.90;;;;;;4951813;29;20049;-71
2021/04/10 02:12:54;;;;;;;4.30;1.10;;;10.80;99.90;;;;;;4952143;28;20043;-70
2021/04/10 02:15:21;;;;;;;6.20;1.40;;;10.80;99.90;;;;;;4953781;28;20039;-70
2021/04/10 02:17:48;;;;;;;4.05;1.10;;;10.70;99.90;;;;;;4954286;29;20102;-70
2021/04/10 02:20:15;;;;;;;5.60;1.23;;;10.60;99.90;;;;;;4954343;29;20051;-71
2021/04/10 02:22:49;;;;;;;7.35;1.33;;;10.40;99.90;;;;;;4937525;29;20051;-70
2021/04/10 02:25:18;;;;;;;6.78;1.50;;;10.20;99.90;;;;;;4954080;28;20047;-70
2021/04/10 02:27:45;;;;;;;3.22;1.10;;;9.90;99.90;;;;;;4953736;28;20122;-70
2021/04/10 02:30:13;;;;;;;11.32;2.13;;;9.60;99.90;;;;;;4936650;29;20357;-70
2021/04/10 02:32:49;;;;;;;8.35;1.90;;;9.50;99.90;;;;;;4953601;29;20051;-70
2021/04/10 02:35:22;;;;;;;8.32;1.58;;;9.40;99.90;;;;;;4938621;29;20134;-70
2021/04/10 02:37:49;;;;;;;;;;;9.40;99.90;;;;;;4952404;28;20067;-70
2021/04/10 02:40:18;;;;;;;3.70;1.30;;;9.30;99.90;;;;;;4954273;29;19926;-70
2021/04/10 02:42:46;;;;;;;9.13;2.40;;;9.20;99.90;;;;;;4947219;29;20098;-70
2021/04/10 02:45:16;;;;;;;5.80;1.63;;;9.20;99.90;;;;;;4948927;28;20054;-70
2021/04/10 02:47:44;;;;;;;7.85;2.13;;;9.20;99.90;;;;;;4952085;29;20043;-70
2021/04/10 02:50:15;;;;;;;7.63;1.63;;;9.10;99.90;;;;;;4953371;29;20098;-70
2021/04/10 02:52:46;;;;;;;9.20;2.05;;;9.00;99.90;;;;;;4954213;29;20070;-70
2021/04/10 02:55:26;;;;;;;5.00;1.75;;;9.10;99.90;;;;;;4953253;28;20059;-70
2021/04/10 02:57:53;;;;;;;8.63;2.65;;;9.00;99.90;;;;;;4952692;28;20047;-70
2021/04/10 03:00:20;;;;;;;6.70;1.88;;;8.90;99.90;;;;;;4952238;28;20051;-70
2021/04/10 03:02:47;;;;;;;8.40;2.28;;;8.90;99.90;;;;;;4935882;29;20141;-70
2021/04/10 03:05:14;;;;;;;5.15;1.88;;;8.90;99.90;;;;;;4953862;29;20047;-70
2021/04/10 03:07:46;;;;;;;9.38;2.03;;;8.90;99.90;;;;;;4952745;29;20047;-70
2021/04/10 03:10:17;;;;;;;9.27;1.90;;;8.90;99.90;;;;;;4951038;29;20562;-70
2021/04/10 03:12:44;;;;;;;13.02;2.75;;;9.00;99.90;;;;;;4951664;28;20040;-70
2021/04/10 03:15:16;;;;;;;8.18;2.15;;;9.00;99.90;;;;;;4952155;29;20043;-70
2021/04/10 03:17:44;;;;;;;8.48;2.13;;;9.10;99.90;;;;;;4947886;29;20096;-70
2021/04/10 03:20:16;;;;;;;7.57;1.88;;;9.10;99.90;;;;;;4945523;29;20047;-70
2021/04/10 03:22:44;;;;;;;11.63;1.85;;;9.10;99.90;;;;;;4952568;28;20106;-70
2021/04/10 03:25:12;;;;;;;6.97;2.80;;;9.10;99.90;;;;;;4951032;28;20102;-69
2021/04/10 03:27:40;;;;;;;8.27;2.20;;;9.10;99.90;;;;;;4953784;28;20039;-69
2021/04/10 03:30:08;;;;;;;10.15;1.75;;;9.10;99.90;;;;;;4954089;28;20066;-69
2021/04/10 03:32:37;;;;;;;6.65;1.73;;;9.20;99.90;;;;;;4953262;29;20047;-69
2021/04/10 03:35:04;;;;;;;5.70;1.40;;;9.30;99.90;;;;;;4935496;28;20055;-69
2021/04/10 03:37:31;;;;;;;11.88;2.22;;;9.30;99.90;;;;;;4952977;29;20508;-69
2021/04/10 03:39:59;;;;;;;6.32;2.03;;;9.30;99.90;;;;;;4952984;29;20488;-70
2021/04/10 03:42:37;;;;;;;5.57;1.67;;;9.20;99.90;;;;;;4952434;28;20050;-69
2021/04/10 03:45:05;;;;;;;9.00;1.65;;;9.30;99.90;;;;;;4952204;28;20065;-69
2021/04/10 03:47:52;;;;;;;9.15;1.50;;;9.30;99.90;;;;;;4949193;29;20523;-70
2021/04/10 03:50:18;;;;;;;7.13;1.92;;;9.20;99.90;;;;;;4921250;29;20086;-69
2021/04/10 03:52:45;;;;;;;5.80;1.73;;;9.10;99.90;;;;;;4934829;29;20412;-71
2021/04/10 03:55:22;;;;;;;3.58;1.30;;;9.00;99.90;;;;;;4935811;29;20054;-69
2021/04/10 03:57:49;;;;;;;4.18;1.10;;;9.00;99.90;;;;;;4935141;29;20051;-69
2021/04/10 04:00:16;;;;;;;3.03;1.15;;;8.90;99.90;;;;;;4951001;29;20062;-70
2021/04/10 04:02:42;;;;;;;7.47;1.95;;;8.80;99.90;;;;;;4935050;29;20043;-69
2021/04/10 04:05:10;;;;;;;9.80;1.50;;;8.80;99.90;;;;;;4935446;29;20047;-71
2021/04/10 04:07:37;;;;;;;4.07;1.02;;;8.80;99.90;;;;;;4952013;29;20051;-71
2021/04/10 04:10:04;;;;;;;6.60;1.30;;;8.80;99.90;;;;;;4952019;28;20047;-69
2021/04/10 04:12:31;;;;;;;8.32;1.70;;;8.70;99.90;;;;;;4952851;28;20051;-71
2021/04/10 04:14:57;;;;;;;4.90;1.48;;;8.80;99.90;;;;;;4952613;28;20043;-71
2021/04/10 04:17:23;;;;;;;12.15;1.65;;;8.70;99.90;;;;;;4952351;29;20574;-71
2021/04/10 04:19:50;;;;;;;5.18;1.52;;;8.60;99.90;;;;;;4951373;28;20055;-71
2021/04/10 04:22:16;;;;;;;5.00;1.02;;;8.70;99.90;;;;;;4952887;29;20106;-71
2021/04/10 04:24:42;;;;;;;5.38;1.38;;;8.70;99.90;;;;;;4934175;28;20415;-69
2021/04/10 04:27:09;;;;;;;5.30;1.30;;;8.70;99.90;;;;;;4934322;29;20043;-71
2021/04/10 04:29:39;;;;;;;4.30;1.35;;;8.60;99.90;;;;;;4951340;29;20036;-71
2021/04/10 04:32:07;;;;;;;7.60;1.42;;;8.60;99.90;;;;;;4934601;29;20139;-71
2021/04/10 04:34:35;;;;;;;8.60;1.70;;;8.70;99.90;;;;;;4941524;29;20380;-70
2021/04/10 04:37:03;;;;;;;4.18;1.50;;;8.70;99.90;;;;;;4951767;28;20067;-70
2021/04/10 04:39:30;;;;;;;2.95;0.95;;;8.70;99.90;;;;;;4951262;29;20159;-70
2021/04/10 04:41:58;;;;;;;6.80;1.73;;;8.70;99.90;;;;;;4934963;29;20050;-70
2021/04/10 04:44:45;;;;;;;4.90;1.02;;;8.60;99.90;;;;;;4935391;28;20040;-70
2021/04/10 04:47:15;;;;;;;7.57;1.55;;;8.60;99.90;;;;;;4951276;29;20181;-70
2021/04/10 04:49:42;;;;;;;4.70;1.38;;;8.60;99.90;;;;;;4949595;29;20122;-70
2021/04/10 04:52:09;;;;;;;4.40;1.45;;;8.60;99.90;;;;;;4933199;29;20050;-70
2021/04/10 04:54:36;;;;;;;3.08;1.10;;;8.60;99.90;;;;;;4951264;29;20051;-70
2021/04/10 04:57:02;;;;;;;4.97;1.23;;;8.50;99.90;;;;;;4951597;28;20047;-70
2021/04/10 04:59:29;;;;;;;2.50;1.00;;;8.40;99.90;;;;;;4933707;29;20052;-70
2021/04/10 05:01:55;;;;;;;5.47;1.20;;;8.50;99.90;;;;;;4951565;29;20086;-70
2021/04/10 05:04:22;;;;;;;3.28;1.00;;;8.50;99.90;;;;;;4951777;29;20043;-69
2021/04/10 05:06:49;;;;;;;5.82;1.38;;;8.40;99.90;;;;;;4933514;29;20043;-69
2021/04/10 05:09:15;;;;;;;5.50;1.20;;;8.30;99.90;;;;;;4950822;29;20057;-70
2021/04/10 05:11:41;;;;;;;10.77;1.50;;;8.40;99.90;;;;;;4951146;29;20483;-70
2021/04/10 05:14:09;;;;;;;3.75;0.95;;;8.30;99.90;;;;;;4951429;29;20050;-70
2021/04/10 05:16:35;;;;;;;8.55;1.65;;;8.30;99.90;;;;;;4950402;28;20043;-70
2021/04/10 05:19:01;;;;;;;3.90;1.30;;;8.30;99.90;;;;;;4946955;29;20139;-70
2021/04/10 05:21:28;;;;;;;3.03;1.27;;;8.30;99.90;;;;;;4948148;28;20055;-70
2021/04/10 05:23:54;;;;;;;9.40;1.52;;;8.30;99.90;;;;;;4950953;29;20047;-70
2021/04/10 05:26:21;;;;;;;3.63;1.00;;;8.30;99.90;;;;;;4949478;28;20154;-70
2021/04/10 05:28:47;;;;;;;3.10;1.10;;;8.30;99.90;;;;;;4950240;28;20059;-70
2021/04/10 05:31:14;;;;;;;3.58;1.00;;;8.20;99.90;;;;;;4949086;28;20102;-70
2021/04/10 05:33:43;;;;;;;4.03;0.90;;;8.20;99.90;;;;;;4937629;28;20051;-71
2021/04/10 05:36:10;;;;;;;3.30;1.10;;;8.20;99.90;;;;;;4935796;28;20344;-70
2021/04/10 05:38:37;;;;;;;5.72;1.23;;;8.20;99.90;;;;;;4950788;29;20058;-70
2021/04/10 05:41:05;;;;;;;2.95;0.80;;;8.20;99.90;;;;;;4950975;28;20050;-70
2021/04/10 05:43:31;;;;;;;5.22;1.10;;;8.20;99.90;;;;;;4933026;29;20472;-70
2021/04/10 05:46:01;;;;;;;7.25;1.30;;;8.10;99.90;;;;;;4933211;29;20044;-70
2021/04/10 05:48:28;;;;;;;3.80;0.70;;;8.10;99.90;;;;;;4948943;29;20061;-70
2021/04/10 05:50:55;;;;;;;4.38;1.00;;;8.00;99.90;;;;;;4950770;28;20200;-70
2021/04/10 05:53:22;;;;;;;6.45;1.08;;;8.00;99.90;;;;;;4933169;29;20110;-70
2021/04/10 05:55:48;;;;;;;3.97;1.10;;;7.90;99.90;;;;;;4932299;29;20393;-70
2021/04/10 05:58:14;;;;;;;3.80;1.08;;;7.90;99.90;;;;;;4932841;29;20070;-70
2021/04/10 06:00:41;;;;;;;5.65;1.45;;;7.90;99.90;;;;;;4949718;28;20504;-70
2021/04/10 06:03:07;;;;;;;2.28;0.70;;;7.90;99.90;;;;;;4933585;29;20054;-70
2021/04/10 06:05:34;;;;;;;5.82;1.10;;;7.90;99.90;;;;;;4950813;28;20463;-70
2021/04/10 06:08:00;;;;;;;6.57;1.08;;;8.00;99.90;;;;;;4950568;29;20073;-70
2021/04/10 06:10:32;;;;;;;7.47;1.08;;;7.90;99.90;;;;;;4950999;29;20121;-70
2021/04/10 06:12:58;;;;;;;3.40;0.80;;;7.90;99.90;;;;;;4949381;29;20098;-71
2021/04/10 06:15:24;;;;;;;2.05;0.90;;;7.90;99.90;;;;;;4932401;29;20055;-70
2021/04/10 06:17:51;;;;;;;3.38;0.85;;;7.90;99.90;;;;;;4949760;29;20579;-70
2021/04/10 06:20:19;;;;;;;3.08;0.90;;;7.90;99.90;;;;;;4950508;29;20114;-70
2021/04/10 06:22:45;;;;;;;6.78;1.20;;;7.90;99.90;;;;;;4951123;28;20047;-70
2021/04/10 06:25:12;;;;;;;6.97;0.73;;;7.90;99.90;;;;;;4949635;28;20070;-70
2021/04/10 06:27:38;;;;;;;6.03;1.10;;;7.90;99.90;;;;;;4949657;29;20476;-71
2021/04/10 06:30:07;;;;;;;5.88;0.90;;;8.00;99.90;;;;;;4950240;29;20047;-70
2021/04/10 06:32:34;;;;;;;4.50;0.80;;;8.00;99.90;;;;;;4953016;28;20043;-70
2021/04/10 06:35:01;;;;;;;3.83;1.20;;;8.00;99.90;;;;;;4958781;28;20102;-70
2021/04/10 06:37:27;;;;;;;6.18;1.15;;;8.00;99.90;;;;;;4952232;29;20106;-70
2021/04/10 06:39:54;;;;;;;5.22;1.10;;;8.00;99.90;;;;;;4935788;29;20051;-70
2021/04/10 06:42:20;;;;;;;7.38;1.00;;;8.10;99.90;;;;;;4953904;29;20401;-70
2021/04/10 06:44:47;;;;;;;1.40;0.60;;;8.20;99.90;;;;;;4936362;29;20413;-70
2021/04/10 06:47:18;;;;;;;3.75;1.25;;;8.20;99.90;;;;;;4953020;28;20101;-70
2021/04/10 06:49:46;;;;;;;2.88;0.90;;;8.20;99.90;;;;;;4937173;29;20043;-70
2021/04/10 06:52:16;;;;;;;2.78;0.70;;;8.30;99.90;;;;;;4953198;29;20536;-70
2021/04/10 06:54:46;;;;;;;4.40;0.70;;;8.40;99.90;;;;;;4935579;28;20150;-70
2021/04/10 06:57:21;;;;;;;1.85;0.80;;;8.40;99.90;;;;;;4934969;29;20062;-70
2021/04/10 07:00:10;;;;;;;2.17;0.70;;;8.50;99.90;;;;;;4952626;29;20098;-70
2021/04/10 07:02:38;;;;;;;3.00;0.80;;;8.60;99.90;;;;;;4953914;28;20046;-69
2021/04/10 07:05:06;;;;;;;4.28;1.05;;;8.70;99.90;;;;;;4936679;28;20484;-70
2021/04/10 07:07:34;;;;;;;2.75;0.90;;;8.80;99.90;;;;;;4935403;29;20389;-70
2021/04/10 07:10:12;;;;;;;4.15;1.05;;;8.80;99.90;;;;;;4952727;29;20047;-70
2021/04/10 07:12:39;;;;;;;4.40;1.10;;;8.90;99.90;;;;;;4953154;29;20043;-69
2021/04/10 07:15:10;;;;;;;5.15;1.35;;;8.90;99.90;;;;;;4953758;28;20126;-70
2021/04/10 07:17:37;;;;;;;5.00;1.05;;;8.80;99.90;;;;;;4952408;28;20110;-70
2021/04/10 07:20:23;;;;;;;4.28;1.10;;;8.70;99.90;;;;;;4952880;29;20062;-70
2021/04/10 07:23:03;;;;;;;5.55;1.20;;;8.70;99.90;;;;;;4953770;28;20115;-70
2021/04/10 07:25:34;;;;;;;5.60;0.80;;;8.70;99.90;;;;;;4935425;29;20039;-70
2021/04/10 07:28:29;;;;;;;3.75;0.80;;;8.50;99.90;;;;;;4952539;28;20082;-71
2021/04/10 07:31:00;;;;;;;5.07;1.13;;;8.50;99.90;;;;;;4947907;28;20071;-70
2021/04/10 07:33:28;;;;;;;5.90;1.48;;;8.50;99.90;;;;;;4952783;29;20057;-70
2021/04/10 07:35:56;;;;;;;6.05;1.00;;;8.50;99.90;;;;;;4953526;28;20050;-70
2021/04/10 07:38:32;;;;;;;5.88;1.08;;;8.50;99.90;;;;;;4950994;29;20047;-70
2021/04/10 07:41:03;;;;;;;5.03;1.58;;;8.50;99.90;;;;;;4954146;28;20118;-70
2021/04/10 07:43:35;;;;;;;4.78;1.00;;;8.60;99.90;;;;;;4951143;28;20043;-70
2021/04/10 07:46:13;;;;;;;3.45;0.88;;;8.60;99.90;;;;;;4952195;28;20058;-70
2021/04/10 07:49:07;;;;;;;2.88;0.82;;;8.50;99.90;;;;;;4951271;28;20473;-70
2021/04/10 07:51:37;;;;;;;3.15;0.82;;;8.40;99.90;;;;;;4942975;28;20126;-70
2021/04/10 07:54:30;;;;;;;5.85;1.00;;;8.40;99.90;;;;;;4952583;28;20094;-71
2021/04/10 07:57:07;;;;;;;4.18;0.90;;;8.30;99.90;;;;;;4933329;29;20449;-70
2021/04/10 07:59:49;;;;;;;3.08;0.70;;;8.30;99.90;;;;;;4952639;29;20535;-70
2021/04/10 08:02:21;;;;;;;6.25;0.80;;;8.30;99.90;;;;;;4934688;29;20055;-70
2021/04/10 08:04:58;;;;;;;5.68;0.90;;;8.30;99.90;;;;;;4950373;29;20090;-70
2021/04/10 08:07:34;;;;;;;4.20;1.45;;;8.20;99.90;;;;;;4951489;29;20079;-70
2021/04/10 08:10:08;;;;;;;4.97;0.90;;;8.30;99.90;;;;;;4951720;29;20043;-70
2021/04/10 08:12:39;;;;;;;3.55;1.02;;;8.20;99.90;;;;;;4952969;28;20058;-71
2021/04/10 08:15:08;;;;;;;3.28;1.38;;;8.20;99.90;;;;;;4946501;29;20572;-70
2021/04/10 08:17:42;;;;;;;4.00;0.95;;;8.20;99.90;;;;;;4945911;28;20035;-70
2021/04/10 08:20:23;;;;;;;4.13;0.90;;;8.20;99.90;;;;;;4949756;28;20051;-70
2021/04/10 08:23:22;;;;;;;3.10;1.00;;;8.10;99.90;;;;;;4951916;29;20122;-71
2021/04/10 08:26:09;;;;;;;6.93;0.90;;;8.20;99.90;;;;;;4952450;28;20094;-71
2021/04/10 08:28:44;;;;;;;4.97;1.10;;;8.10;99.90;;;;;;4951907;29;20046;-70
2021/04/10 08:31:11;;;;;;;4.63;1.20;;;8.20;99.90;;;;;;4953274;29;20050;-70
2021/04/10 08:33:37;;;;;;;3.83;1.30;;;8.10;99.90;;;;;;4951196;29;20043;-70
2021/04/10 08:36:09;;;;;;;4.72;0.93;;;8.10;99.90;;;;;;4949618;28;20448;-70
2021/04/10 08:38:38;;;;;;;8.50;1.00;;;8.00;99.90;;;;;;4931771;29;20516;-70
2021/04/10 08:41:07;;;;;;;5.25;1.20;;;8.10;99.90;;;;;;4951314;29;20097;-70
2021/04/10 08:43:44;;;;;;;10.05;2.22;;;8.00;99.90;;;;;;4951727;28;20051;-70
2021/04/10 08:46:11;;;;;;;3.88;0.98;;;8.00;99.90;;;;;;4947634;28;20051;-70
2021/04/10 08:48:38;;;;;;;3.97;1.00;;;8.10;99.90;;;;;;4932269;28;20043;-70
2021/04/10 08:51:08;;;;;;;4.68;1.05;;;8.20;99.90;;;;;;4950505;28;20054;-70
2021/04/10 08:53:38;;;;;;;4.47;1.13;;;8.30;99.90;;;;;;4968191;28;20050;-70
2021/04/10 08:56:09;;;;;;;2.95;0.98;;;8.30;99.90;;;;;;4949151;28;20043;-70
2021/04/10 08:58:39;;;;;;;1.75;0.77;;;8.40;99.90;;;;;;4947224;28;20540;-70
2021/04/10 09:01:08;;;;;;;4.97;1.02;;;8.50;99.90;;;;;;4944573;28;20435;-70
2021/04/10 09:03:48;;;;;;;4.88;0.88;;;8.50;99.90;;;;;;4944110;29;20163;-70
2021/04/10 09:06:16;;;;;;;6.20;1.00;;;8.40;99.90;;;;;;4941144;28;20507;-70
2021/04/10 09:08:43;;;;;;;2.83;1.02;;;8.40;99.90;;;;;;4927854;29;20042;-70
2021/04/10 09:11:19;;;;;;;8.25;1.23;;;8.40;99.90;;;;;;4948985;29;20432;-70
2021/04/10 09:13:47;;;;;;;3.40;1.25;;;8.40;99.90;;;;;;4950314;29;20043;-70
2021/04/10 09:16:25;;;;;;;3.75;0.90;;;8.40;99.90;;;;;;4946932;28;20047;-70
2021/04/10 09:19:02;;;;;;;4.28;1.40;;;8.30;99.90;;;;;;4948653;28;20122;-70
2021/04/10 09:21:55;;;;;;;4.40;0.90;;;8.30;99.90;;;;;;4949504;29;20071;-70
2021/04/10 09:24:37;;;;;;;5.95;1.15;;;8.30;99.90;;;;;;4950334;29;20066;-70
2021/04/10 09:27:18;;;;;;;3.97;1.42;;;8.40;99.90;;;;;;4948495;29;20423;-70
2021/04/10 09:30:06;;;;;;;5.53;1.20;;;8.30;99.90;;;;;;4953285;28;20134;-70
2021/04/10 09:32:52;;;;;;;2.78;1.25;;;8.20;99.90;;;;;;4951447;28;20384;-70
2021/04/10 09:35:35;;;;;;;6.55;1.20;;;8.30;99.90;;;;;;4934114;29;20062;-70
2021/04/10 09:38:02;;;;;;;4.32;1.30;;;8.30;99.90;;;;;;4948132;28;20504;-70
2021/04/10 09:40:47;;;;;;;4.25;1.45;;;8.40;99.90;;;;;;4950539;29;20043;-70
2021/04/10 09:43:14;;;;;;;3.67;1.23;;;8.50;99.90;;;;;;4950781;29;20078;-70
2021/04/10 09:45:41;;;;;;;4.20;1.05;;;8.60;99.90;;;;;;4949800;28;20043;-70
2021/04/10 09:48:11;;;;;;;2.47;1.02;;;8.60;99.90;;;;;;4952210;28;20465;-70
2021/04/10 09:50:50;;;;;;;5.78;2.08;;;8.50;99.90;;;;;;4953382;28;20058;-69
2021/04/10 09:53:20;;;;;;;2.92;1.00;;;8.50;99.90;;;;;;4950698;29;20047;-70
2021/04/10 09:56:11;;;;;;;7.43;1.77;;;8.50;99.90;;;;;;4950895;28;20401;-70
2021/04/10 09:58:43;;;;;;;5.00;1.20;;;8.60;99.90;;;;;;4934208;28;20062;-70
2021/04/10 10:01:12;;;;;;;7.10;1.45;;;8.60;99.90;;;;;;4959986;28;20113;-70
2021/04/10 10:03:39;;;;;;;3.88;1.10;;;8.60;99.90;;;;;;4951202;29;20051;-70
2021/04/10 10:06:24;;;;;;;4.13;1.10;;;8.60;99.90;;;;;;4950910;28;20209;-70
2021/04/10 10:08:51;;;;;;;4.60;1.23;;;8.80;99.90;;;;;;4955673;29;20051;-70
2021/04/10 10:11:18;;;;;;;11.23;3.00;;;8.90;99.90;;;;;;4936558;29;20106;-70
2021/04/10 10:13:45;;;;;;;4.25;1.70;;;9.00;99.90;;;;;;4937903;29;20047;-70
2021/04/10 10:16:12;;;;;;;5.25;1.92;;;8.90;99.90;;;;;;4937578;29;20050;-70
2021/04/10 10:18:43;;;;;;;14.13;4.70;;;8.90;99.90;;;;;;4955022;29;20062;-70
2021/04/10 10:21:17;;;;;;;15.48;5.72;;;8.90;99.90;;;;;;4952458;29;20050;-70
2021/04/10 10:23:51;;;;;;;29.13;11.25;;;8.90;99.90;;;;;;4954278;29;20156;-70
2021/04/10 10:26:38;;;;;;;25.83;10.80;;;9.00;99.90;;;;;;4935978;29;20058;-70
2021/04/10 10:29:08;;;;;;;20.23;8.80;;;9.00;99.90;;;;;;4952792;28;20047;-70
2021/04/10 10:31:43;;;;;;;15.60;6.90;;;8.90;99.90;;;;;;4953420;28;20123;-69
2021/04/10 10:34:12;;;;;;;4.20;2.38;;;8.90;99.90;;;;;;4949777;29;20063;-70
2021/04/10 10:36:41;;;;;;;4.07;1.30;;;9.00;99.90;;;;;;4953736;28;20035;-69
2021/04/10 10:39:25;;;;;;;3.35;0.80;;;9.00;99.90;;;;;;4950067;29;20685;-71
2021/04/10 10:41:51;;;;;;;2.78;0.90;;;9.20;99.90;;;;;;4937081;29;20047;-71
2021/04/10 10:44:19;;;;;;;4.18;0.90;;;9.20;99.90;;;;;;4935419;29;20567;-71
2021/04/10 10:46:46;;;;;;;5.57;1.10;;;9.30;99.90;;;;;;4953703;28;20047;-70
2021/04/10 10:49:13;;;;;;;3.40;0.90;;;9.30;99.90;;;;;;4953876;29;20102;-70
2021/04/10 10:51:41;;;;;;;3.03;1.13;;;9.30;99.90;;;;;;4954240;29;20186;-70
2021/04/10 10:54:08;;;;;;;6.15;1.20;;;9.30;99.90;;;;;;4953700;29;20039;-70
2021/04/10 10:56:35;;;;;;;6.53;0.90;;;9.40;99.90;;;;;;4962997;28;20034;-70
2021/04/10 10:59:08;;;;;;;4.95;1.05;;;9.40;99.90;;;;;;4937299;29;20064;-70
2021/04/10 11:01:44;;;;;;;5.20;0.80;;;9.50;99.90;;;;;;4952957;29;20127;-70
2021/04/10 11:04:24;;;;;;;4.95;0.80;;;9.50;99.90;;;;;;4949847;28;20405;-70
2021/04/10 11:06:52;;;;;;;7.05;1.10;;;9.40;99.90;;;;;;4935762;29;20055;-70
2021/04/10 11:09:22;;;;;;;3.20;0.80;;;9.40;99.90;;;;;;4954251;29;20039;-70
2021/04/10 11:11:51;;;;;;;3.95;1.50;;;9.40;99.90;;;;;;4943364;29;20047;-70
2021/04/10 11:14:24;;;;;;;11.07;1.38;;;9.50;99.90;;;;;;4928562;29;20492;-70
2021/04/10 11:16:52;;;;;;;5.07;0.90;;;9.60;99.90;;;;;;4934844;29;20122;-70
2021/04/10 11:19:45;;;;;;;3.63;1.00;;;9.60;99.90;;;;;;4950626;28;20058;-70
2021/04/10 11:22:16;;;;;;;4.70;1.02;;;9.60;99.90;;;;;;4951316;28;20059;-70
2021/04/10 11:24:47;;;;;;;10.38;2.08;;;9.60;99.90;;;;;;4952660;29;20054;-71
2021/04/10 11:27:21;;;;;;;4.78;1.20;;;9.70;99.90;;;;;;4951490;29;20057;-70
2021/04/10 11:29:53;;;;;;;5.45;1.20;;;9.60;99.90;;;;;;4921088;29;20421;-70
2021/04/10 11:32:31;;;;;;;4.70;1.20;;;9.50;99.90;;;;;;4953011;29;20070;-71
2021/04/10 11:35:06;;;;;;;5.95;1.10;;;9.60;99.90;;;;;;4951794;28;20043;-71
2021/04/10 11:37:38;;;;;;;4.28;1.27;;;9.50;99.90;;;;;;4952333;29;20135;-71
2021/04/10 11:40:28;;;;;;;5.53;1.13;;;9.40;99.90;;;;;;4953312;29;20392;-70
2021/04/10 11:42:59;;;;;;;10.55;1.52;;;9.40;99.90;;;;;;4949208;29;20051;-71
2021/04/10 11:45:51;;;;;;;4.70;1.20;;;9.20;99.90;;;;;;4951639;28;20051;-70
2021/04/10 11:48:20;;;;;;;8.27;1.63;;;9.30;99.90;;;;;;4952676;29;20050;-70
2021/04/10 11:50:47;;;;;;;4.70;1.40;;;9.20;99.90;;;;;;4934348;29;20094;-71
2021/04/10 11:53:15;;;;;;;13.95;5.10;;;9.10;99.90;;;;;;4951130;28;20051;-71
2021/04/10 11:55:42;;;;;;;6.20;0.85;;;9.00;99.90;;;;;;4953486;28;20082;-71
2021/04/10 11:58:08;;;;;;;8.23;1.45;;;9.10;99.90;;;;;;4951194;29;20066;-71
2021/04/10 12:00:35;;;;;;;5.63;1.50;;;9.30;99.90;;;;;;4951533;29;20063;-72
2021/04/10 12:03:09;;;;;;;9.52;1.10;;;9.40;99.90;;;;;;4951416;29;20082;-71
2021/04/10 12:05:43;;;;;;;10.32;1.83;;;9.50;99.90;;;;;;4952404;28;20106;-71
2021/04/10 12:08:09;;;;;;;5.53;0.85;;;9.60;99.90;;;;;;4952202;29;20114;-71
2021/04/10 12:10:40;;;;;;;6.32;1.70;;;9.60;99.90;;;;;;4951546;29;20043;-71
2021/04/10 12:13:07;;;;;;;7.68;1.55;;;9.80;99.90;;;;;;4951653;29;20047;-71
2021/04/10 12:15:36;;;;;;;10.68;2.08;;;9.90;99.90;;;;;;4946499;28;20042;-70
2021/04/10 12:18:06;;;;;;;5.75;1.30;;;10.10;99.90;;;;;;4959995;28;20039;-70
2021/04/10 12:20:33;;;;;;;3.67;1.00;;;10.10;99.90;;;;;;4952806;28;20055;-70
2021/04/10 12:22:59;;;;;;;5.68;1.25;;;10.30;99.90;;;;;;4950412;29;20137;-70
2021/04/10 12:25:26;;;;;;;10.25;1.88;;;10.60;99.90;;;;;;4952352;28;20055;-71
2021/04/10 12:27:52;;;;;;;4.60;0.73;;;10.90;99.90;;;;;;4950272;29;20496;-71
2021/04/10 12:30:20;;;;;;;1.75;0.73;;;11.00;99.90;;;;;;4951237;28;20055;-71
2021/04/10 12:32:46;;;;;;;3.45;1.20;;;10.90;99.90;;;;;;4951416;29;20043;-71
2021/04/10 12:35:13;;;;;;;6.10;1.40;;;11.20;99.90;;;;;;4950750;28;20043;-71
2021/04/10 12:37:40;;;;;;;4.18;0.90;;;11.40;99.90;;;;;;4952542;29;20067;-71
2021/04/10 12:40:09;;;;;;;5.05;1.60;;;11.60;99.90;;;;;;4950633;29;20575;-71
2021/04/10 12:42:36;;;;;;;1.48;0.82;;;11.60;99.90;;;;;;4949652;28;20047;-71
2021/04/10 12:45:08;;;;;;;2.50;0.95;;;11.80;99.90;;;;;;4951284;28;20051;-71
2021/04/10 12:47:35;;;;;;;3.90;0.85;;;12.00;99.90;;;;;;4949816;29;20067;-71
2021/04/10 12:50:03;;;;;;;2.45;0.90;;;11.60;99.90;;;;;;4951867;29;20062;-71
2021/04/10 12:52:30;;;;;;;2.95;1.02;;;11.40;99.90;;;;;;4933072;29;20043;-71
2021/04/10 12:54:56;;;;;;;6.43;1.08;;;11.50;99.90;;;;;;4949477;28;20039;-71
2021/04/10 12:57:23;;;;;;;2.75;0.95;;;11.80;99.90;;;;;;4951681;28;20114;-71
2021/04/10 12:59:50;;;;;;;3.38;1.13;;;12.00;99.90;;;;;;4952243;29;20047;-71
2021/04/10 13:02:17;;;;;;;3.30;0.93;;;12.00;99.90;;;;;;4950010;29;20054;-71
2021/04/10 13:04:43;;;;;;;4.78;1.08;;;12.20;99.90;;;;;;4951501;29;20043;-71
2021/04/10 13:07:11;;;;;;;13.27;2.00;;;12.10;99.90;;;;;;4944887;28;20087;-71
2021/04/10 13:09:37;;;;;;;3.38;1.45;;;12.00;99.90;;;;;;4943991;29;20050;-71